createdAt,value
2018-12-31T00:01:12.058Z,9.40
2018-12-31T00:03:39.559Z,8.90
2018-12-31T00:06:06.803Z,8.70
2018-12-31T00:08:34.078Z,6.63
2018-12-31T00:11:01.565Z,8.30
2018-12-31T00:13:28.814Z,6.13
2018-12-31T00:15:56.091Z,8.63
2018-12-31T00:18:23.334Z,7.10
2018-12-31T00:20:50.609Z,7.47
2018-12-31T00:23:18.114Z,7.03
2018-12-31T00:25:45.381Z,6.73
2018-12-31T00:28:12.633Z,6.97
2018-12-31T00:30:39.905Z,6.00
2018-12-31T00:33:07.149Z,5.60
2018-12-31T00:35:34.423Z,5.87
2018-12-31T00:38:01.666Z,7.13
2018-12-31T00:40:29.201Z,6.20
2018-12-31T00:42:59.187Z,7.33
2018-12-31T00:45:25.681Z,7.97
2018-12-31T00:47:52.962Z,6.57
2018-12-31T00:50:20.470Z,5.57
2018-12-31T00:52:47.742Z,5.20
2018-12-31T00:55:15.225Z,6.60
2018-12-31T00:57:42.752Z,7.07
2018-12-31T01:00:09.998Z,6.43
2018-12-31T01:02:37.264Z,6.77
2018-12-31T01:05:04.604Z,5.73
2018-12-31T01:07:32.099Z,4.93
2018-12-31T01:09:59.687Z,7.13
2018-12-31T01:12:26.964Z,6.27
2018-12-31T01:14:54.207Z,6.13
2018-12-31T01:17:21.489Z,6.17
2018-12-31T01:19:48.742Z,5.20
2018-12-31T01:22:15.978Z,4.90
2018-12-31T01:24:43.251Z,6.40
2018-12-31T01:27:10.523Z,6.77
2018-12-31T01:29:38.030Z,5.90
2018-12-31T01:32:05.542Z,5.50
2018-12-31T01:34:32.837Z,7.17
2018-12-31T01:37:00.088Z,7.70
2018-12-31T01:39:27.582Z,7.10
2018-12-31T01:41:54.855Z,6.67
2018-12-31T01:44:22.126Z,7.10
2018-12-31T01:46:49.365Z,6.20
2018-12-31T01:49:16.900Z,6.83
2018-12-31T01:51:44.161Z,8.10
2018-12-31T01:54:11.437Z,6.87
2018-12-31T01:56:38.718Z,6.77
2018-12-31T01:59:06.046Z,7.80
2018-12-31T02:01:33.322Z,7.37
2018-12-31T02:04:00.827Z,8.60
2018-12-31T02:06:28.101Z,8.93
2018-12-31T02:08:55.337Z,8.00
2018-12-31T02:11:22.614Z,7.40
2018-12-31T02:13:49.858Z,8.13
2018-12-31T02:16:17.387Z,7.20
2018-12-31T02:18:45.614Z,7.53
2018-12-31T02:21:12.983Z,7.20
2018-12-31T02:23:40.257Z,10.43
2018-12-31T02:26:07.515Z,8.03
2018-12-31T02:28:34.781Z,9.13
2018-12-31T02:31:02.059Z,8.80
2018-12-31T02:33:29.346Z,7.00
2018-12-31T02:35:56.596Z,10.30
2018-12-31T02:38:23.834Z,8.33
2018-12-31T02:40:51.108Z,8.07
2018-12-31T02:43:18.351Z,7.57
2018-12-31T02:45:45.627Z,8.67
2018-12-31T02:48:12.867Z,7.60
2018-12-31T02:50:40.140Z,8.50
2018-12-31T02:53:07.636Z,10.43
2018-12-31T02:55:34.905Z,9.27
2018-12-31T02:58:02.173Z,8.40
2018-12-31T03:00:29.647Z,10.27
2018-12-31T03:02:57.498Z,8.20
2018-12-31T03:05:24.779Z,10.00
2018-12-31T03:07:52.028Z,9.03
2018-12-31T03:10:19.270Z,9.33
2018-12-31T03:12:46.544Z,8.10
2018-12-31T03:15:13.815Z,8.80
2018-12-31T03:17:41.062Z,9.50
2018-12-31T03:20:08.412Z,11.27
2018-12-31T03:22:35.678Z,9.40
2018-12-31T03:25:02.918Z,7.50
2018-12-31T03:27:30.450Z,7.00
2018-12-31T03:29:57.992Z,8.20
2018-12-31T03:32:25.262Z,8.33
2018-12-31T03:34:52.503Z,7.97
2018-12-31T03:37:19.747Z,8.30
2018-12-31T03:39:47.034Z,6.50
2018-12-31T03:42:14.271Z,7.93
2018-12-31T03:44:41.510Z,8.23
2018-12-31T03:47:08.786Z,8.80
2018-12-31T03:49:36.302Z,7.53
2018-12-31T03:52:03.857Z,7.77
2018-12-31T03:54:31.103Z,7.03
2018-12-31T03:56:58.353Z,9.10
2018-12-31T03:59:25.626Z,10.53
2018-12-31T04:01:52.871Z,8.13
2018-12-31T04:04:20.120Z,9.20
2018-12-31T04:06:47.670Z,8.67
2018-12-31T04:09:15.019Z,6.13
2018-12-31T04:11:42.240Z,6.27
2018-12-31T04:14:09.516Z,6.63
2018-12-31T04:16:37.014Z,6.13
2018-12-31T04:19:04.290Z,6.00
2018-12-31T04:21:31.540Z,6.00
2018-12-31T04:23:58.798Z,5.77
2018-12-31T04:26:26.071Z,7.23
2018-12-31T04:28:53.314Z,8.77
2018-12-31T04:31:20.582Z,5.67
2018-12-31T04:33:47.830Z,6.67
2018-12-31T04:36:15.106Z,7.20
2018-12-31T04:38:42.354Z,7.00
2018-12-31T04:41:09.629Z,6.13
2018-12-31T04:43:36.871Z,6.47
2018-12-31T04:46:04.142Z,6.60
2018-12-31T04:48:31.391Z,6.13
2018-12-31T04:50:58.658Z,5.70
2018-12-31T04:53:25.940Z,5.43
2018-12-31T04:55:53.186Z,5.47
2018-12-31T04:58:23.113Z,6.83
2018-12-31T05:00:49.419Z,6.07
2018-12-31T05:03:16.691Z,5.70
2018-12-31T05:05:43.934Z,6.23
2018-12-31T05:08:11.214Z,6.23
2018-12-31T05:10:38.458Z,5.83
2018-12-31T05:13:05.703Z,6.80
2018-12-31T05:15:32.978Z,5.00
2018-12-31T05:18:00.223Z,6.00
2018-12-31T05:20:27.499Z,5.93
2018-12-31T05:22:54.775Z,6.17
2018-12-31T05:25:22.024Z,7.77
2018-12-31T05:27:49.307Z,5.40
2018-12-31T05:30:16.888Z,5.87
2018-12-31T05:32:44.416Z,6.80
2018-12-31T05:35:11.661Z,6.23
2018-12-31T05:37:38.925Z,6.43
2018-12-31T05:40:06.266Z,8.20
2018-12-31T05:42:33.542Z,6.40
2018-12-31T05:45:01.765Z,6.90
2018-12-31T05:47:29.166Z,6.50
2018-12-31T05:49:56.658Z,6.37
2018-12-31T05:52:23.930Z,7.00
2018-12-31T05:54:51.202Z,5.87
2018-12-31T05:57:18.478Z,6.87
2018-12-31T05:59:45.724Z,5.93
2018-12-31T06:02:13.005Z,5.80
2018-12-31T06:04:40.276Z,6.73
2018-12-31T06:07:07.521Z,6.17
2018-12-31T06:09:35.067Z,6.10
2018-12-31T06:12:02.311Z,7.80
2018-12-31T06:14:29.587Z,7.70
2018-12-31T06:16:56.832Z,7.97
2018-12-31T06:19:24.103Z,9.00
2018-12-31T06:21:51.394Z,7.37
2018-12-31T06:24:18.633Z,7.27
2018-12-31T06:26:45.874Z,7.10
2018-12-31T06:29:13.202Z,8.47
2018-12-31T06:31:40.461Z,8.33
2018-12-31T06:34:07.744Z,8.27
2018-12-31T06:36:34.986Z,8.67
2018-12-31T06:39:02.225Z,9.20
2018-12-31T06:41:29.503Z,10.67
2018-12-31T06:43:56.755Z,11.40
2018-12-31T06:46:24.039Z,11.60
2018-12-31T06:48:51.285Z,11.23
2018-12-31T06:51:18.559Z,9.07
2018-12-31T06:53:46.048Z,8.93
2018-12-31T06:56:13.323Z,10.60
2018-12-31T06:58:40.565Z,9.10
2018-12-31T07:01:07.838Z,11.83
2018-12-31T07:03:35.084Z,9.33
2018-12-31T07:06:02.353Z,11.63
2018-12-31T07:08:29.882Z,10.37
2018-12-31T07:10:57.131Z,9.93
2018-12-31T07:13:24.402Z,9.03
2018-12-31T07:15:51.642Z,10.13
2018-12-31T07:18:18.910Z,9.77
2018-12-31T07:20:46.154Z,8.00
2018-12-31T07:23:13.424Z,9.67
2018-12-31T07:25:40.694Z,8.83
2018-12-31T07:28:07.939Z,9.80
2018-12-31T07:30:35.213Z,9.47
2018-12-31T07:33:02.456Z,9.40
2018-12-31T07:35:29.697Z,8.80
2018-12-31T07:37:56.978Z,12.67
2018-12-31T07:40:24.256Z,9.53
2018-12-31T07:42:51.495Z,8.17
2018-12-31T07:45:18.777Z,12.83
2018-12-31T07:47:46.021Z,11.40
2018-12-31T07:50:13.299Z,10.27
2018-12-31T07:52:40.542Z,9.80
2018-12-31T07:55:07.824Z,11.30
2018-12-31T07:57:35.083Z,12.80
2018-12-31T08:00:02.358Z,12.20
2018-12-31T08:02:29.606Z,12.10
2018-12-31T08:04:56.886Z,11.33
2018-12-31T08:07:24.162Z,14.40
2018-12-31T08:09:51.417Z,11.73
2018-12-31T08:12:18.776Z,11.40
2018-12-31T08:14:46.022Z,11.90
2018-12-31T08:17:13.543Z,16.20
2018-12-31T08:19:40.814Z,15.10
2018-12-31T08:22:08.061Z,11.60
2018-12-31T08:24:35.614Z,17.33
2018-12-31T08:27:02.894Z,13.23
2018-12-31T08:29:30.150Z,14.60
2018-12-31T08:31:57.418Z,13.70
2018-12-31T08:34:24.698Z,15.33
2018-12-31T08:36:51.986Z,22.23
2018-12-31T08:39:19.237Z,14.20
2018-12-31T08:41:46.514Z,14.67
2018-12-31T08:44:13.773Z,12.60
2018-12-31T08:46:41.054Z,14.30
2018-12-31T08:49:08.306Z,14.17
2018-12-31T08:51:35.851Z,16.00
2018-12-31T08:54:03.135Z,12.67
2018-12-31T08:56:30.381Z,14.93
2018-12-31T08:58:57.659Z,10.90
2018-12-31T09:01:24.914Z,12.37
2018-12-31T09:03:52.268Z,10.57
2018-12-31T09:06:19.628Z,11.93
2018-12-31T09:08:46.923Z,12.60
2018-12-31T09:11:14.163Z,17.33
2018-12-31T09:13:41.422Z,13.73
2018-12-31T09:16:08.705Z,12.60
2018-12-31T09:18:35.958Z,16.93
2018-12-31T09:21:03.241Z,13.80
2018-12-31T09:23:30.489Z,12.60
2018-12-31T09:25:57.753Z,10.93
2018-12-31T09:28:25.039Z,10.80
2018-12-31T09:30:52.291Z,11.97
2018-12-31T09:33:19.819Z,12.53
2018-12-31T09:35:47.091Z,13.40
2018-12-31T09:38:14.342Z,14.47
2018-12-31T09:40:41.622Z,11.13
2018-12-31T09:43:08.865Z,10.90
2018-12-31T09:45:36.207Z,8.73
2018-12-31T09:48:03.455Z,11.00
2018-12-31T09:50:30.758Z,10.63
2018-12-31T09:52:58.039Z,12.97
2018-12-31T09:55:25.289Z,12.40
2018-12-31T09:57:52.574Z,12.60
2018-12-31T10:00:19.826Z,13.93
2018-12-31T10:02:47.109Z,13.50
2018-12-31T10:05:14.359Z,14.90
2018-12-31T10:07:41.633Z,13.87
2018-12-31T10:10:08.886Z,13.23
2018-12-31T10:12:36.166Z,10.93
2018-12-31T10:15:03.715Z,15.57
2018-12-31T10:17:31.002Z,13.53
2018-12-31T10:19:58.279Z,18.40
2018-12-31T10:22:25.522Z,13.40
2018-12-31T10:24:52.806Z,16.37
2018-12-31T10:27:20.054Z,12.30
2018-12-31T10:29:47.346Z,15.13
2018-12-31T10:32:14.601Z,13.93
2018-12-31T10:34:41.881Z,14.00
2018-12-31T10:37:09.122Z,12.93
2018-12-31T10:39:36.412Z,12.40
2018-12-31T10:42:03.746Z,12.83
2018-12-31T10:44:30.992Z,14.10
2018-12-31T10:47:05.359Z,12.27
2018-12-31T10:49:32.705Z,14.70
2018-12-31T10:52:00.063Z,13.50
2018-12-31T10:54:27.311Z,16.90
2018-12-31T10:56:54.594Z,18.13
2018-12-31T10:59:22.122Z,16.57
2018-12-31T11:01:49.471Z,15.73
2018-12-31T11:04:16.830Z,16.20
2018-12-31T11:06:44.083Z,16.50
2018-12-31T11:09:11.367Z,14.70
2018-12-31T11:11:38.642Z,13.93
2018-12-31T11:14:05.926Z,15.60
2018-12-31T11:16:33.245Z,14.50
2018-12-31T11:19:00.554Z,19.07
2018-12-31T11:21:27.815Z,16.10
2018-12-31T11:23:55.105Z,14.67
2018-12-31T11:26:22.624Z,18.97
2018-12-31T11:28:49.870Z,18.60
2018-12-31T11:31:17.154Z,13.97
2018-12-31T11:33:44.401Z,16.87
2018-12-31T11:36:11.681Z,19.20
2018-12-31T11:38:39.187Z,15.93
2018-12-31T11:41:06.465Z,16.40
2018-12-31T11:43:33.742Z,16.40
2018-12-31T11:46:00.993Z,17.33
2018-12-31T11:48:28.348Z,16.20
2018-12-31T11:50:55.867Z,17.43
2018-12-31T11:53:23.142Z,16.53
2018-12-31T11:55:50.690Z,21.20
2018-12-31T11:58:18.218Z,18.73
2018-12-31T12:00:45.527Z,18.03
2018-12-31T12:03:13.169Z,17.83
2018-12-31T12:05:40.417Z,19.90
2018-12-31T12:08:07.797Z,19.30
2018-12-31T12:10:35.038Z,16.63
2018-12-31T12:13:02.313Z,16.87
2018-12-31T12:15:29.677Z,20.23
2018-12-31T12:17:57.305Z,16.80
2018-12-31T12:20:24.579Z,26.83
2018-12-31T12:22:52.130Z,18.90
2018-12-31T12:25:19.496Z,17.83
2018-12-31T12:27:46.747Z,15.93
2018-12-31T12:30:14.030Z,18.10
2018-12-31T12:32:41.550Z,15.80
2018-12-31T12:35:08.905Z,16.67
2018-12-31T12:37:36.170Z,19.00
2018-12-31T12:40:03.598Z,19.83
2018-12-31T12:42:30.858Z,15.17
2018-12-31T12:44:58.097Z,17.07
2018-12-31T12:47:25.640Z,16.40
2018-12-31T12:49:53.001Z,16.13
2018-12-31T12:52:20.543Z,17.17
2018-12-31T12:54:47.795Z,16.43
2018-12-31T12:57:15.068Z,16.50
2018-12-31T12:59:42.959Z,16.63
2018-12-31T13:02:10.235Z,13.90
2018-12-31T13:04:37.495Z,19.30
2018-12-31T13:07:04.784Z,15.97
2018-12-31T13:09:32.030Z,13.67
2018-12-31T13:11:59.308Z,16.07
2018-12-31T13:14:26.603Z,17.40
2018-12-31T13:16:54.148Z,14.77
2018-12-31T13:19:21.394Z,14.63
2018-12-31T13:21:48.648Z,19.20
2018-12-31T13:24:15.926Z,16.63
2018-12-31T13:26:43.648Z,14.90
2018-12-31T13:29:11.242Z,15.93
2018-12-31T13:31:38.490Z,12.53
2018-12-31T13:34:05.776Z,14.40
2018-12-31T13:36:33.108Z,16.53
2018-12-31T13:39:00.367Z,15.27
2018-12-31T13:41:28.021Z,16.97
2018-12-31T13:43:55.275Z,17.87
2018-12-31T13:46:22.778Z,19.90
2018-12-31T13:48:50.062Z,18.37
2018-12-31T13:51:17.337Z,12.70
2018-12-31T13:53:44.626Z,15.57
2018-12-31T13:56:11.871Z,13.47
2018-12-31T13:58:39.415Z,13.40
2018-12-31T14:01:06.766Z,12.83
2018-12-31T14:03:34.094Z,11.27
2018-12-31T14:06:01.631Z,14.50
2018-12-31T14:08:29.149Z,12.00
2018-12-31T14:10:56.686Z,9.83
2018-12-31T14:13:24.007Z,12.00
2018-12-31T14:15:51.325Z,10.70
2018-12-31T14:18:18.611Z,11.60
2018-12-31T14:20:45.853Z,11.70
2018-12-31T14:23:13.134Z,17.27
2018-12-31T14:25:40.439Z,12.80
2018-12-31T14:28:08.098Z,15.80
2018-12-31T14:30:35.372Z,15.30
2018-12-31T14:33:02.949Z,17.60
2018-12-31T14:35:30.558Z,18.23
2018-12-31T14:37:57.847Z,20.87
2018-12-31T14:40:25.353Z,18.30
2018-12-31T14:42:52.636Z,19.13
2018-12-31T14:45:20.759Z,20.27
2018-12-31T14:47:48.042Z,23.40
2018-12-31T14:50:15.581Z,21.60
2018-12-31T14:52:42.834Z,22.53
2018-12-31T14:55:10.114Z,25.70
2018-12-31T14:57:37.366Z,21.17
2018-12-31T15:00:06.184Z,22.20
2018-12-31T15:02:33.428Z,20.87
2018-12-31T15:05:01.842Z,26.27
2018-12-31T15:07:29.132Z,20.93
2018-12-31T15:09:56.391Z,23.40
2018-12-31T15:12:23.966Z,21.40
2018-12-31T15:14:51.246Z,25.20
2018-12-31T15:17:19.122Z,19.40
2018-12-31T15:19:46.409Z,20.77
2018-12-31T15:22:13.662Z,23.23
2018-12-31T15:24:41.215Z,24.73
2018-12-31T15:27:08.471Z,27.30
2018-12-31T15:29:35.798Z,22.37
2018-12-31T15:32:03.256Z,22.40
2018-12-31T15:34:30.539Z,23.60
2018-12-31T15:36:58.128Z,18.93
2018-12-31T15:39:25.406Z,21.87
2018-12-31T15:41:52.676Z,21.60
2018-12-31T15:44:19.958Z,27.03
2018-12-31T15:46:47.242Z,24.17
2018-12-31T15:49:14.489Z,23.47
2018-12-31T15:51:41.769Z,20.40
2018-12-31T15:54:09.048Z,24.40
2018-12-31T15:56:36.335Z,23.70
2018-12-31T15:59:03.887Z,23.27
2018-12-31T16:01:31.167Z,28.67
2018-12-31T16:03:58.423Z,24.97
2018-12-31T16:06:25.705Z,26.17
2018-12-31T16:08:53.031Z,25.20
2018-12-31T16:11:20.522Z,24.60
2018-12-31T16:13:48.095Z,22.17
2018-12-31T16:16:15.677Z,23.70
2018-12-31T16:18:42.926Z,21.67
2018-12-31T16:21:10.213Z,25.47
2018-12-31T16:23:37.468Z,24.53
2018-12-31T16:26:04.891Z,21.20
2018-12-31T16:28:32.706Z,24.80
2018-12-31T16:30:59.953Z,23.80
2018-12-31T16:33:27.209Z,24.37
2018-12-31T16:35:54.490Z,27.37
2018-12-31T16:38:21.778Z,23.47
2018-12-31T16:40:49.062Z,21.83
2018-12-31T16:43:16.309Z,29.37
2018-12-31T16:45:43.586Z,28.27
2018-12-31T16:48:10.865Z,26.43
2018-12-31T16:50:38.122Z,29.97
2018-12-31T16:53:05.408Z,32.40
2018-12-31T16:55:34.112Z,27.87
2018-12-31T16:58:01.752Z,27.67
2018-12-31T17:00:29.006Z,28.60
2018-12-31T17:02:56.365Z,27.30
2018-12-31T17:05:23.616Z,32.27
2018-12-31T17:07:50.895Z,32.57
2018-12-31T17:10:18.218Z,27.23
2018-12-31T17:12:45.579Z,30.43
2018-12-31T17:15:12.854Z,34.80
2018-12-31T17:17:40.362Z,26.97
2018-12-31T17:20:07.992Z,31.67
2018-12-31T17:22:35.391Z,34.40
2018-12-31T17:25:02.942Z,39.10
2018-12-31T17:27:30.193Z,38.10
2018-12-31T17:29:57.474Z,35.53
2018-12-31T17:32:24.798Z,42.70
2018-12-31T17:34:52.054Z,36.70
2018-12-31T17:37:19.678Z,40.27
2018-12-31T17:39:47.318Z,36.63
2018-12-31T17:42:14.602Z,41.90
2018-12-31T17:44:42.105Z,38.90
2018-12-31T17:47:09.494Z,36.43
2018-12-31T17:49:36.922Z,43.93
2018-12-31T17:52:04.244Z,43.70
2018-12-31T17:54:31.779Z,38.03
2018-12-31T17:56:59.130Z,44.50
2018-12-31T17:59:26.378Z,44.57
2018-12-31T18:01:53.739Z,37.77
2018-12-31T18:04:20.993Z,46.60
2018-12-31T18:06:48.282Z,37.63
2018-12-31T18:09:15.615Z,40.30
2018-12-31T18:11:42.889Z,41.07
2018-12-31T18:14:10.139Z,44.00
2018-12-31T18:16:37.510Z,38.03
2018-12-31T18:19:04.773Z,39.97
2018-12-31T18:21:32.035Z,41.10
2018-12-31T18:23:59.378Z,41.00
2018-12-31T18:26:26.663Z,34.17
2018-12-31T18:28:53.925Z,42.23
2018-12-31T18:31:21.258Z,40.33
2018-12-31T18:33:48.526Z,46.47
2018-12-31T18:36:17.437Z,47.77
2018-12-31T18:38:44.922Z,45.27
2018-12-31T18:41:12.202Z,42.90
2018-12-31T18:43:39.533Z,43.33
2018-12-31T18:46:06.823Z,41.87
2018-12-31T18:48:34.103Z,40.83
2018-12-31T18:51:01.536Z,49.70
2018-12-31T18:53:28.814Z,47.53
2018-12-31T18:55:56.354Z,42.70
2018-12-31T18:58:23.637Z,48.30
2018-12-31T19:00:50.895Z,49.47
2018-12-31T19:03:18.181Z,43.87
2018-12-31T19:05:45.701Z,47.87
2018-12-31T19:08:12.985Z,59.67
2018-12-31T19:10:40.247Z,49.33
2018-12-31T19:13:07.529Z,49.97
2018-12-31T19:15:34.782Z,53.80
2018-12-31T19:18:02.032Z,55.20
2018-12-31T19:20:29.318Z,53.87
2018-12-31T19:22:56.604Z,56.60
2018-12-31T19:25:23.885Z,50.30
2018-12-31T19:27:51.142Z,57.13
2018-12-31T19:30:18.430Z,48.77
2018-12-31T19:32:45.759Z,47.63
2018-12-31T19:35:13.033Z,63.70
2018-12-31T19:37:40.286Z,52.00
2018-12-31T19:40:07.571Z,45.77
2018-12-31T19:42:34.838Z,46.83
2018-12-31T19:45:02.114Z,48.87
2018-12-31T19:47:29.374Z,54.10
2018-12-31T19:49:56.623Z,53.17
2018-12-31T19:52:23.977Z,53.07
2018-12-31T19:54:51.273Z,56.40
2018-12-31T19:57:18.517Z,50.03
2018-12-31T19:59:45.910Z,52.50
2018-12-31T20:02:13.153Z,51.97
2018-12-31T20:04:40.406Z,46.33
2018-12-31T20:07:07.690Z,54.60
2018-12-31T20:09:34.946Z,47.97
2018-12-31T20:12:02.235Z,53.80
2018-12-31T20:14:29.497Z,58.00
2018-12-31T20:16:56.775Z,49.93
2018-12-31T20:19:24.059Z,56.43
2018-12-31T20:21:51.310Z,51.80
2018-12-31T20:24:18.843Z,49.63
2018-12-31T20:26:46.350Z,54.27
2018-12-31T20:29:13.686Z,47.97
2018-12-31T20:31:41.233Z,48.77
2018-12-31T20:34:08.834Z,47.90
2018-12-31T20:36:36.121Z,52.60
2018-12-31T20:39:05.333Z,92.40
2018-12-31T20:41:32.585Z,58.40
2018-12-31T20:44:00.405Z,55.80
2018-12-31T20:46:27.722Z,50.70
2018-12-31T20:48:55.478Z,53.60
2018-12-31T20:51:22.730Z,58.97
2018-12-31T20:53:50.008Z,54.13
2018-12-31T20:56:17.388Z,53.97
2018-12-31T20:58:44.633Z,52.03
2018-12-31T21:01:11.890Z,52.43
2018-12-31T21:03:39.541Z,59.30
2018-12-31T21:06:06.802Z,49.90
2018-12-31T21:08:34.331Z,50.63
2018-12-31T21:11:01.582Z,51.63
2018-12-31T21:13:28.865Z,51.83
2018-12-31T21:15:56.113Z,45.57
2018-12-31T21:18:23.907Z,48.60
2018-12-31T21:20:51.187Z,50.00
2018-12-31T21:23:18.441Z,58.90
2018-12-31T21:25:45.713Z,63.23
2018-12-31T21:28:12.968Z,45.40
2018-12-31T21:30:40.250Z,55.03
2018-12-31T21:33:07.901Z,43.77
2018-12-31T21:35:35.150Z,46.73
2018-12-31T21:38:02.425Z,46.37
2018-12-31T21:40:29.728Z,49.30
2018-12-31T21:42:56.969Z,43.63
2018-12-31T21:45:24.241Z,47.50
2018-12-31T21:47:51.694Z,50.60
2018-12-31T21:50:18.951Z,46.40
2018-12-31T21:52:47.769Z,47.17
2018-12-31T21:55:15.153Z,47.63
2018-12-31T21:57:42.409Z,46.20
2018-12-31T22:00:09.834Z,49.60
2018-12-31T22:02:37.783Z,41.67
2018-12-31T22:05:05.100Z,41.83
2018-12-31T22:07:32.380Z,43.07
2018-12-31T22:09:59.818Z,45.60
2018-12-31T22:12:27.091Z,42.73
2018-12-31T22:14:54.610Z,40.60
2018-12-31T22:17:22.170Z,41.23
2018-12-31T22:19:49.449Z,44.47
2018-12-31T22:22:16.733Z,43.10
2018-12-31T22:24:44.263Z,39.03
2018-12-31T22:27:11.537Z,53.87
2018-12-31T22:29:38.828Z,43.83
2018-12-31T22:32:06.349Z,38.63
2018-12-31T22:34:33.629Z,40.23
2018-12-31T22:37:01.045Z,42.70
2018-12-31T22:39:28.299Z,49.80
2018-12-31T22:41:55.842Z,45.90
2018-12-31T22:44:23.098Z,51.30
2018-12-31T22:46:51.020Z,38.00
2018-12-31T22:49:18.273Z,50.57
2018-12-31T22:51:45.550Z,58.40
2018-12-31T22:54:12.842Z,53.90
2018-12-31T22:56:40.099Z,46.60
2018-12-31T22:59:07.378Z,46.77
2018-12-31T23:01:34.631Z,54.73
2018-12-31T23:04:01.906Z,57.20
2018-12-31T23:06:29.166Z,51.53
2018-12-31T23:08:56.708Z,52.73
2018-12-31T23:11:23.995Z,49.43
2018-12-31T23:13:51.321Z,49.47
2018-12-31T23:16:18.599Z,53.33
2018-12-31T23:18:45.950Z,51.83
2018-12-31T23:21:13.233Z,66.63
2018-12-31T23:23:40.477Z,51.83
2018-12-31T23:26:07.773Z,55.93
2018-12-31T23:28:35.402Z,58.27
2018-12-31T23:31:02.649Z,50.13
2018-12-31T23:33:29.938Z,45.50
2018-12-31T23:35:57.758Z,51.93
2018-12-31T23:38:25.015Z,47.03
2018-12-31T23:40:52.289Z,47.33
2018-12-31T23:43:20.018Z,43.47
2018-12-31T23:45:47.273Z,42.97
2018-12-31T23:48:14.517Z,43.50
2018-12-31T23:50:41.813Z,49.30
2018-12-31T23:53:09.323Z,36.50
2018-12-31T23:55:36.621Z,41.87
2018-12-31T23:58:04.402Z,50.20
